sensor_id;sensor_type;location;lat;lon;timestamp;P1;durP1;ratioP1;P2;durP2;ratioP2
47896;SDS011;39629;51.400;5.494;2024-02-26T00:03:13;4.53;;;1.33;;
47896;SDS011;39629;51.400;5.494;2024-02-26T00:08:14;3.67;;;1.55;;
47896;SDS011;39629;51.400;5.494;2024-02-26T00:13:16;3.03;;;1.40;;
47896;SDS011;39629;51.400;5.494;2024-02-26T00:18:19;4.50;;;1.33;;
47896;SDS011;39629;51.400;5.494;2024-02-26T00:23:21;3.97;;;1.67;;
47896;SDS011;39629;51.400;5.494;2024-02-26T00:28:24;4.53;;;1.60;;
47896;SDS011;39629;51.400;5.494;2024-02-26T00:33:29;3.20;;;1.57;;
47896;SDS011;39629;51.400;5.494;2024-02-26T00:38:30;4.13;;;1.55;;
47896;SDS011;39629;51.400;5.494;2024-02-26T00:43:32;4.53;;;1.52;;
47896;SDS011;39629;51.400;5.494;2024-02-26T00:48:35;3.72;;;1.65;;
47896;SDS011;39629;51.400;5.494;2024-02-26T00:53:37;4.10;;;1.70;;
47896;SDS011;39629;51.400;5.494;2024-02-26T00:58:38;3.80;;;1.50;;
47896;SDS011;39629;51.400;5.494;2024-02-26T01:03:41;5.70;;;1.90;;
47896;SDS011;39629;51.400;5.494;2024-02-26T01:08:43;6.60;;;1.77;;
47896;SDS011;39629;51.400;5.494;2024-02-26T01:13:45;2.90;;;1.58;;
47896;SDS011;39629;51.400;5.494;2024-02-26T01:18:48;5.40;;;2.00;;
47896;SDS011;39629;51.400;5.494;2024-02-26T01:23:49;6.40;;;2.00;;
47896;SDS011;39629;51.400;5.494;2024-02-26T01:28:51;4.72;;;2.15;;
47896;SDS011;39629;51.400;5.494;2024-02-26T01:33:56;6.90;;;2.30;;
47896;SDS011;39629;51.400;5.494;2024-02-26T01:38:59;7.40;;;2.13;;
47896;SDS011;39629;51.400;5.494;2024-02-26T01:44:00;7.50;;;2.58;;
47896;SDS011;39629;51.400;5.494;2024-02-26T01:49:03;4.90;;;2.28;;
47896;SDS011;39629;51.400;5.494;2024-02-26T01:54:05;7.82;;;2.50;;
47896;SDS011;39629;51.400;5.494;2024-02-26T01:59:09;5.17;;;2.13;;
47896;SDS011;39629;51.400;5.494;2024-02-26T02:04:12;4.57;;;2.10;;
47896;SDS011;39629;51.400;5.494;2024-02-26T02:09:14;5.72;;;2.17;;
47896;SDS011;39629;51.400;5.494;2024-02-26T02:14:16;5.93;;;2.25;;
47896;SDS011;39629;51.400;5.494;2024-02-26T02:19:19;4.45;;;2.03;;
47896;SDS011;39629;51.400;5.494;2024-02-26T02:24:22;3.28;;;2.08;;
47896;SDS011;39629;51.400;5.494;2024-02-26T02:29:24;4.78;;;2.05;;
47896;SDS011;39629;51.400;5.494;2024-02-26T02:34:27;4.33;;;2.30;;
47896;SDS011;39629;51.400;5.494;2024-02-26T02:39:31;4.00;;;2.17;;
47896;SDS011;39629;51.400;5.494;2024-02-26T02:44:33;4.07;;;2.30;;
47896;SDS011;39629;51.400;5.494;2024-02-26T02:49:34;6.15;;;2.70;;
47896;SDS011;39629;51.400;5.494;2024-02-26T02:54:37;3.65;;;2.13;;
47896;SDS011;39629;51.400;5.494;2024-02-26T02:59:41;3.92;;;2.17;;
47896;SDS011;39629;51.400;5.494;2024-02-26T03:04:43;5.53;;;2.55;;
47896;SDS011;39629;51.400;5.494;2024-02-26T03:09:46;5.25;;;2.20;;
47896;SDS011;39629;51.400;5.494;2024-02-26T03:14:48;5.40;;;2.40;;
47896;SDS011;39629;51.400;5.494;2024-02-26T03:19:50;4.40;;;2.35;;
47896;SDS011;39629;51.400;5.494;2024-02-26T03:24:54;3.25;;;2.08;;
47896;SDS011;39629;51.400;5.494;2024-02-26T03:29:56;4.47;;;2.30;;
47896;SDS011;39629;51.400;5.494;2024-02-26T03:34:58;3.53;;;2.00;;
47896;SDS011;39629;51.400;5.494;2024-02-26T03:40:01;4.15;;;2.30;;
47896;SDS011;39629;51.400;5.494;2024-02-26T03:45:04;3.90;;;2.20;;
47896;SDS011;39629;51.400;5.494;2024-02-26T03:50:06;3.22;;;1.65;;
47896;SDS011;39629;51.400;5.494;2024-02-26T03:55:10;4.05;;;1.80;;
47896;SDS011;39629;51.400;5.494;2024-02-26T04:00:12;3.28;;;1.80;;
47896;SDS011;39629;51.400;5.494;2024-02-26T04:05:14;3.97;;;2.03;;
47896;SDS011;39629;51.400;5.494;2024-02-26T04:10:18;3.13;;;1.70;;
47896;SDS011;39629;51.400;5.494;2024-02-26T04:15:20;2.92;;;1.80;;
47896;SDS011;39629;51.400;5.494;2024-02-26T04:20:21;2.95;;;1.67;;
47896;SDS011;39629;51.400;5.494;2024-02-26T04:25:24;2.38;;;1.48;;
47896;SDS011;39629;51.400;5.494;2024-02-26T04:30:26;3.40;;;1.70;;
47896;SDS011;39629;51.400;5.494;2024-02-26T04:35:28;2.97;;;1.83;;
47896;SDS011;39629;51.400;5.494;2024-02-26T04:40:31;3.38;;;2.00;;
47896;SDS011;39629;51.400;5.494;2024-02-26T04:45:33;3.70;;;1.85;;
47896;SDS011;39629;51.400;5.494;2024-02-26T04:50:34;4.97;;;1.92;;
47896;SDS011;39629;51.400;5.494;2024-02-26T04:55:37;3.28;;;1.90;;
47896;SDS011;39629;51.400;5.494;2024-02-26T05:00:39;3.95;;;1.92;;
47896;SDS011;39629;51.400;5.494;2024-02-26T05:05:41;3.42;;;2.20;;
47896;SDS011;39629;51.400;5.494;2024-02-26T05:10:44;3.65;;;1.90;;
47896;SDS011;39629;51.400;5.494;2024-02-26T05:15:46;3.25;;;2.13;;
47896;SDS011;39629;51.400;5.494;2024-02-26T05:20:49;4.30;;;2.30;;
47896;SDS011;39629;51.400;5.494;2024-02-26T05:25:52;5.20;;;2.38;;
47896;SDS011;39629;51.400;5.494;2024-02-26T05:30:54;2.50;;;1.65;;
47896;SDS011;39629;51.400;5.494;2024-02-26T05:35:56;3.92;;;2.00;;
47896;SDS011;39629;51.400;5.494;2024-02-26T05:41:05;3.28;;;1.88;;
47896;SDS011;39629;51.400;5.494;2024-02-26T05:51:09;5.53;;;1.92;;
47896;SDS011;39629;51.400;5.494;2024-02-26T05:56:12;3.08;;;1.73;;
47896;SDS011;39629;51.400;5.494;2024-02-26T06:01:15;3.00;;;1.88;;
47896;SDS011;39629;51.400;5.494;2024-02-26T06:06:17;3.00;;;1.90;;
47896;SDS011;39629;51.400;5.494;2024-02-26T06:11:20;3.78;;;1.90;;
47896;SDS011;39629;51.400;5.494;2024-02-26T06:16:22;2.80;;;1.70;;
47896;SDS011;39629;51.400;5.494;2024-02-26T06:21:24;3.22;;;1.77;;
47896;SDS011;39629;51.400;5.494;2024-02-26T06:26:27;3.30;;;1.80;;
47896;SDS011;39629;51.400;5.494;2024-02-26T06:31:29;3.58;;;1.77;;
47896;SDS011;39629;51.400;5.494;2024-02-26T06:36:31;3.90;;;2.00;;
47896;SDS011;39629;51.400;5.494;2024-02-26T06:41:34;2.85;;;1.60;;
47896;SDS011;39629;51.400;5.494;2024-02-26T06:46:36;3.63;;;1.98;;
47896;SDS011;39629;51.400;5.494;2024-02-26T06:51:38;2.80;;;1.40;;
47896;SDS011;39629;51.400;5.494;2024-02-26T06:56:41;2.88;;;1.77;;
47896;SDS011;39629;51.400;5.494;2024-02-26T07:01:43;4.57;;;2.35;;
47896;SDS011;39629;51.400;5.494;2024-02-26T07:06:44;3.45;;;2.03;;
47896;SDS011;39629;51.400;5.494;2024-02-26T07:11:48;4.22;;;2.20;;
47896;SDS011;39629;51.400;5.494;2024-02-26T07:16:49;3.95;;;2.20;;
47896;SDS011;39629;51.400;5.494;2024-02-26T07:21:51;4.38;;;2.85;;
47896;SDS011;39629;51.400;5.494;2024-02-26T07:26:54;5.13;;;2.40;;
47896;SDS011;39629;51.400;5.494;2024-02-26T07:31:56;3.97;;;2.60;;
47896;SDS011;39629;51.400;5.494;2024-02-26T07:36:57;5.68;;;2.75;;
47896;SDS011;39629;51.400;5.494;2024-02-26T07:42:00;6.15;;;2.55;;
47896;SDS011;39629;51.400;5.494;2024-02-26T07:47:02;5.88;;;3.15;;
47896;SDS011;39629;51.400;5.494;2024-02-26T07:52:04;7.40;;;2.80;;
47896;SDS011;39629;51.400;5.494;2024-02-26T07:57:07;4.88;;;3.03;;
47896;SDS011;39629;51.400;5.494;2024-02-26T08:02:09;5.57;;;3.03;;
47896;SDS011;39629;51.400;5.494;2024-02-26T08:07:11;4.35;;;2.70;;
47896;SDS011;39629;51.400;5.494;2024-02-26T08:12:14;4.57;;;2.72;;
47896;SDS011;39629;51.400;5.494;2024-02-26T08:17:16;6.18;;;2.90;;
47896;SDS011;39629;51.400;5.494;2024-02-26T08:22:18;4.97;;;2.80;;
47896;SDS011;39629;51.400;5.494;2024-02-26T08:27:21;7.00;;;2.58;;
47896;SDS011;39629;51.400;5.494;2024-02-26T08:32:23;5.65;;;2.83;;
47896;SDS011;39629;51.400;5.494;2024-02-26T08:37:24;3.75;;;2.30;;
47896;SDS011;39629;51.400;5.494;2024-02-26T08:42:27;3.85;;;2.33;;
47896;SDS011;39629;51.400;5.494;2024-02-26T08:47:29;4.38;;;2.53;;
47896;SDS011;39629;51.400;5.494;2024-02-26T08:52:31;4.60;;;2.45;;
47896;SDS011;39629;51.400;5.494;2024-02-26T08:57:34;4.53;;;2.47;;
47896;SDS011;39629;51.400;5.494;2024-02-26T09:02:36;5.80;;;2.38;;
47896;SDS011;39629;51.400;5.494;2024-02-26T09:07:39;4.55;;;2.38;;
47896;SDS011;39629;51.400;5.494;2024-02-26T09:12:42;3.70;;;2.45;;
47896;SDS011;39629;51.400;5.494;2024-02-26T09:17:43;3.80;;;2.30;;
47896;SDS011;39629;51.400;5.494;2024-02-26T09:22:46;4.75;;;2.50;;
47896;SDS011;39629;51.400;5.494;2024-02-26T09:27:49;4.45;;;2.47;;
47896;SDS011;39629;51.400;5.494;2024-02-26T09:32:51;5.25;;;2.85;;
47896;SDS011;39629;51.400;5.494;2024-02-26T09:37:52;5.25;;;2.72;;
47896;SDS011;39629;51.400;5.494;2024-02-26T09:42:58;4.18;;;2.33;;
47896;SDS011;39629;51.400;5.494;2024-02-26T09:48:01;4.82;;;2.95;;
47896;SDS011;39629;51.400;5.494;2024-02-26T09:58:11;5.90;;;2.83;;
47896;SDS011;39629;51.400;5.494;2024-02-26T10:03:18;6.68;;;3.10;;
47896;SDS011;39629;51.400;5.494;2024-02-26T10:08:22;4.28;;;2.80;;
47896;SDS011;39629;51.400;5.494;2024-02-26T10:13:26;5.80;;;3.03;;
47896;SDS011;39629;51.400;5.494;2024-02-26T10:18:27;5.00;;;3.03;;
47896;SDS011;39629;51.400;5.494;2024-02-26T10:23:29;5.30;;;3.05;;
47896;SDS011;39629;51.400;5.494;2024-02-26T10:28:32;6.10;;;2.55;;
47896;SDS011;39629;51.400;5.494;2024-02-26T10:33:34;4.22;;;2.50;;
47896;SDS011;39629;51.400;5.494;2024-02-26T10:38:37;5.45;;;2.75;;
47896;SDS011;39629;51.400;5.494;2024-02-26T10:43:40;6.00;;;3.28;;
47896;SDS011;39629;51.400;5.494;2024-02-26T10:48:48;4.22;;;2.35;;
47896;SDS011;39629;51.400;5.494;2024-02-26T10:53:51;5.72;;;2.70;;
47896;SDS011;39629;51.400;5.494;2024-02-26T10:58:59;5.05;;;2.60;;
47896;SDS011;39629;51.400;5.494;2024-02-26T11:04:01;5.85;;;2.88;;
47896;SDS011;39629;51.400;5.494;2024-02-26T11:09:03;5.72;;;3.20;;
47896;SDS011;39629;51.400;5.494;2024-02-26T11:14:09;5.18;;;3.20;;
47896;SDS011;39629;51.400;5.494;2024-02-26T11:19:13;5.93;;;3.50;;
47896;SDS011;39629;51.400;5.494;2024-02-26T11:24:15;6.70;;;3.60;;
47896;SDS011;39629;51.400;5.494;2024-02-26T11:29:20;8.73;;;3.83;;
47896;SDS011;39629;51.400;5.494;2024-02-26T11:34:23;7.63;;;4.20;;
47896;SDS011;39629;51.400;5.494;2024-02-26T11:39:26;6.80;;;4.00;;
47896;SDS011;39629;51.400;5.494;2024-02-26T11:44:29;7.53;;;4.20;;
47896;SDS011;39629;51.400;5.494;2024-02-26T11:49:31;6.78;;;3.97;;
47896;SDS011;39629;51.400;5.494;2024-02-26T11:54:38;7.43;;;4.25;;
47896;SDS011;39629;51.400;5.494;2024-02-26T11:59:51;7.00;;;4.03;;
47896;SDS011;39629;51.400;5.494;2024-02-26T12:04:53;7.60;;;4.10;;
47896;SDS011;39629;51.400;5.494;2024-02-26T12:15:18;10.05;;;4.82;;
47896;SDS011;39629;51.400;5.494;2024-02-26T12:20:21;9.55;;;5.05;;
47896;SDS011;39629;51.400;5.494;2024-02-26T12:25:24;11.35;;;4.97;;
47896;SDS011;39629;51.400;5.494;2024-02-26T12:30:28;11.55;;;4.70;;
47896;SDS011;39629;51.400;5.494;2024-02-26T12:35:34;12.68;;;5.15;;
47896;SDS011;39629;51.400;5.494;2024-02-26T12:40:36;12.98;;;5.25;;
47896;SDS011;39629;51.400;5.494;2024-02-26T12:45:40;11.50;;;4.93;;
47896;SDS011;39629;51.400;5.494;2024-02-26T12:50:44;12.00;;;5.65;;
47896;SDS011;39629;51.400;5.494;2024-02-26T12:55:46;12.40;;;5.65;;
47896;SDS011;39629;51.400;5.494;2024-02-26T13:00:49;11.43;;;5.68;;
47896;SDS011;39629;51.400;5.494;2024-02-26T13:05:51;11.73;;;5.30;;
47896;SDS011;39629;51.400;5.494;2024-02-26T13:10:53;14.15;;;6.38;;
47896;SDS011;39629;51.400;5.494;2024-02-26T13:16:02;16.40;;;6.43;;
47896;SDS011;39629;51.400;5.494;2024-02-26T13:21:11;17.02;;;6.93;;
47896;SDS011;39629;51.400;5.494;2024-02-26T13:26:15;13.75;;;6.18;;
47896;SDS011;39629;51.400;5.494;2024-02-26T13:31:18;15.70;;;6.95;;
47896;SDS011;39629;51.400;5.494;2024-02-26T13:36:20;16.60;;;6.32;;
47896;SDS011;39629;51.400;5.494;2024-02-26T13:41:22;13.50;;;6.00;;
47896;SDS011;39629;51.400;5.494;2024-02-26T13:46:25;14.27;;;6.43;;
47896;SDS011;39629;51.400;5.494;2024-02-26T13:51:27;12.75;;;6.18;;
47896;SDS011;39629;51.400;5.494;2024-02-26T13:56:35;13.10;;;5.53;;
47896;SDS011;39629;51.400;5.494;2024-02-26T14:01:38;12.57;;;5.90;;
47896;SDS011;39629;51.400;5.494;2024-02-26T14:06:40;10.93;;;4.80;;
47896;SDS011;39629;51.400;5.494;2024-02-26T14:11:42;10.05;;;4.97;;
47896;SDS011;39629;51.400;5.494;2024-02-26T14:16:45;10.38;;;4.63;;
47896;SDS011;39629;51.400;5.494;2024-02-26T14:21:46;9.65;;;4.80;;
47896;SDS011;39629;51.400;5.494;2024-02-26T14:26:48;9.27;;;4.47;;
47896;SDS011;39629;51.400;5.494;2024-02-26T14:31:51;12.85;;;4.60;;
47896;SDS011;39629;51.400;5.494;2024-02-26T14:36:52;9.32;;;4.57;;
47896;SDS011;39629;51.400;5.494;2024-02-26T14:41:54;6.95;;;3.58;;
47896;SDS011;39629;51.400;5.494;2024-02-26T14:46:58;11.18;;;4.53;;
47896;SDS011;39629;51.400;5.494;2024-02-26T14:52:00;10.00;;;4.25;;
47896;SDS011;39629;51.400;5.494;2024-02-26T14:57:03;7.55;;;3.70;;
47896;SDS011;39629;51.400;5.494;2024-02-26T15:02:07;5.95;;;2.85;;
47896;SDS011;39629;51.400;5.494;2024-02-26T15:07:10;8.98;;;3.78;;
47896;SDS011;39629;51.400;5.494;2024-02-26T15:12:12;8.93;;;4.32;;
47896;SDS011;39629;51.400;5.494;2024-02-26T15:17:15;7.18;;;3.65;;
47896;SDS011;39629;51.400;5.494;2024-02-26T15:22:16;8.27;;;3.92;;
47896;SDS011;39629;51.400;5.494;2024-02-26T15:27:18;9.07;;;4.35;;
47896;SDS011;39629;51.400;5.494;2024-02-26T15:32:21;7.35;;;4.05;;
47896;SDS011;39629;51.400;5.494;2024-02-26T15:37:24;7.57;;;3.85;;
47896;SDS011;39629;51.400;5.494;2024-02-26T15:42:26;8.35;;;4.20;;
47896;SDS011;39629;51.400;5.494;2024-02-26T15:47:29;10.82;;;4.70;;
47896;SDS011;39629;51.400;5.494;2024-02-26T15:52:31;8.63;;;4.50;;
47896;SDS011;39629;51.400;5.494;2024-02-26T15:57:33;9.10;;;4.18;;
47896;SDS011;39629;51.400;5.494;2024-02-26T16:02:36;8.13;;;4.25;;
47896;SDS011;39629;51.400;5.494;2024-02-26T16:07:38;9.65;;;4.35;;
47896;SDS011;39629;51.400;5.494;2024-02-26T16:12:46;8.95;;;4.00;;
47896;SDS011;39629;51.400;5.494;2024-02-26T16:17:53;8.40;;;3.63;;
47896;SDS011;39629;51.400;5.494;2024-02-26T16:22:58;7.55;;;3.75;;
47896;SDS011;39629;51.400;5.494;2024-02-26T16:28:05;7.32;;;3.80;;
47896;SDS011;39629;51.400;5.494;2024-02-26T16:33:08;11.00;;;5.00;;
47896;SDS011;39629;51.400;5.494;2024-02-26T16:38:09;7.78;;;4.13;;
47896;SDS011;39629;51.400;5.494;2024-02-26T16:43:11;11.18;;;4.60;;
47896;SDS011;39629;51.400;5.494;2024-02-26T16:48:14;10.95;;;4.65;;
47896;SDS011;39629;51.400;5.494;2024-02-26T16:53:16;9.50;;;4.65;;
47896;SDS011;39629;51.400;5.494;2024-02-26T16:58:17;9.90;;;4.55;;
47896;SDS011;39629;51.400;5.494;2024-02-26T17:03:24;9.32;;;4.10;;
47896;SDS011;39629;51.400;5.494;2024-02-26T17:08:26;9.77;;;4.88;;
47896;SDS011;39629;51.400;5.494;2024-02-26T17:13:28;7.85;;;3.78;;
47896;SDS011;39629;51.400;5.494;2024-02-26T17:18:31;10.60;;;4.55;;
47896;SDS011;39629;51.400;5.494;2024-02-26T17:23:33;10.60;;;3.80;;
47896;SDS011;39629;51.400;5.494;2024-02-26T17:28:36;8.65;;;4.15;;
47896;SDS011;39629;51.400;5.494;2024-02-26T17:33:41;9.88;;;4.45;;
47896;SDS011;39629;51.400;5.494;2024-02-26T17:38:43;8.82;;;4.55;;
47896;SDS011;39629;51.400;5.494;2024-02-26T17:43:46;8.30;;;4.18;;
47896;SDS011;39629;51.400;5.494;2024-02-26T17:48:49;9.13;;;3.17;;
47896;SDS011;39629;51.400;5.494;2024-02-26T17:53:51;12.65;;;5.10;;
47896;SDS011;39629;51.400;5.494;2024-02-26T17:58:53;9.60;;;4.25;;
47896;SDS011;39629;51.400;5.494;2024-02-26T18:03:56;7.65;;;3.70;;
47896;SDS011;39629;51.400;5.494;2024-02-26T18:08:57;9.02;;;3.92;;
47896;SDS011;39629;51.400;5.494;2024-02-26T18:13:59;9.02;;;4.30;;
47896;SDS011;39629;51.400;5.494;2024-02-26T18:19:02;8.52;;;4.05;;
47896;SDS011;39629;51.400;5.494;2024-02-26T18:24:04;7.22;;;3.80;;
47896;SDS011;39629;51.400;5.494;2024-02-26T18:29:06;8.98;;;4.03;;
47896;SDS011;39629;51.400;5.494;2024-02-26T18:34:09;10.10;;;4.50;;
47896;SDS011;39629;51.400;5.494;2024-02-26T18:39:10;9.15;;;4.18;;
47896;SDS011;39629;51.400;5.494;2024-02-26T18:44:12;8.50;;;4.22;;
47896;SDS011;39629;51.400;5.494;2024-02-26T18:49:16;8.23;;;4.00;;
47896;SDS011;39629;51.400;5.494;2024-02-26T18:54:17;9.70;;;4.95;;
47896;SDS011;39629;51.400;5.494;2024-02-26T18:59:19;8.80;;;4.20;;
47896;SDS011;39629;51.400;5.494;2024-02-26T19:04:22;11.73;;;5.22;;
47896;SDS011;39629;51.400;5.494;2024-02-26T19:09:23;11.70;;;5.30;;
47896;SDS011;39629;51.400;5.494;2024-02-26T19:14:25;11.18;;;5.63;;
47896;SDS011;39629;51.400;5.494;2024-02-26T19:19:28;11.55;;;5.35;;
47896;SDS011;39629;51.400;5.494;2024-02-26T19:24:30;12.02;;;5.70;;
47896;SDS011;39629;51.400;5.494;2024-02-26T19:29:32;13.57;;;5.90;;
47896;SDS011;39629;51.400;5.494;2024-02-26T19:34:36;11.07;;;5.05;;
47896;SDS011;39629;51.400;5.494;2024-02-26T19:39:39;13.70;;;5.80;;
47896;SDS011;39629;51.400;5.494;2024-02-26T19:44:40;12.10;;;5.60;;
47896;SDS011;39629;51.400;5.494;2024-02-26T19:49:43;13.88;;;5.43;;
47896;SDS011;39629;51.400;5.494;2024-02-26T19:54:45;13.40;;;5.47;;
47896;SDS011;39629;51.400;5.494;2024-02-26T19:59:47;15.38;;;6.07;;
47896;SDS011;39629;51.400;5.494;2024-02-26T20:04:50;9.75;;;4.13;;
47896;SDS011;39629;51.400;5.494;2024-02-26T20:09:51;15.38;;;5.55;;
47896;SDS011;39629;51.400;5.494;2024-02-26T20:14:53;13.35;;;5.70;;
47896;SDS011;39629;51.400;5.494;2024-02-26T20:19:56;11.43;;;5.00;;
47896;SDS011;39629;51.400;5.494;2024-02-26T20:24:58;14.77;;;6.80;;
47896;SDS011;39629;51.400;5.494;2024-02-26T20:30:00;14.25;;;5.65;;
47896;SDS011;39629;51.400;5.494;2024-02-26T20:35:03;14.05;;;6.35;;
47896;SDS011;39629;51.400;5.494;2024-02-26T20:40:07;11.50;;;4.65;;
47896;SDS011;39629;51.400;5.494;2024-02-26T20:45:09;14.13;;;6.35;;
47896;SDS011;39629;51.400;5.494;2024-02-26T20:50:13;16.77;;;6.15;;
47896;SDS011;39629;51.400;5.494;2024-02-26T20:55:15;12.05;;;5.47;;
47896;SDS011;39629;51.400;5.494;2024-02-26T21:00:17;14.40;;;5.80;;
47896;SDS011;39629;51.400;5.494;2024-02-26T21:05:20;13.60;;;5.85;;
47896;SDS011;39629;51.400;5.494;2024-02-26T21:10:23;12.75;;;5.88;;
47896;SDS011;39629;51.400;5.494;2024-02-26T21:15:29;14.50;;;6.13;;
47896;SDS011;39629;51.400;5.494;2024-02-26T21:20:32;14.57;;;6.20;;
47896;SDS011;39629;51.400;5.494;2024-02-26T21:25:34;11.90;;;5.80;;
47896;SDS011;39629;51.400;5.494;2024-02-26T21:30:36;14.82;;;6.28;;
47896;SDS011;39629;51.400;5.494;2024-02-26T21:35:39;16.13;;;6.68;;
47896;SDS011;39629;51.400;5.494;2024-02-26T21:40:40;15.93;;;6.57;;
47896;SDS011;39629;51.400;5.494;2024-02-26T21:45:43;15.52;;;6.40;;
47896;SDS011;39629;51.400;5.494;2024-02-26T21:50:46;17.15;;;7.10;;
47896;SDS011;39629;51.400;5.494;2024-02-26T21:55:48;12.75;;;5.90;;
47896;SDS011;39629;51.400;5.494;2024-02-26T22:00:49;15.80;;;6.38;;
47896;SDS011;39629;51.400;5.494;2024-02-26T22:05:52;16.83;;;6.97;;
47896;SDS011;39629;51.400;5.494;2024-02-26T22:10:54;16.00;;;6.35;;
47896;SDS011;39629;51.400;5.494;2024-02-26T22:15:55;14.85;;;6.93;;
47896;SDS011;39629;51.400;5.494;2024-02-26T22:20:59;16.13;;;6.88;;
47896;SDS011;39629;51.400;5.494;2024-02-26T22:26:00;15.70;;;6.57;;
47896;SDS011;39629;51.400;5.494;2024-02-26T22:31:02;14.00;;;6.53;;
47896;SDS011;39629;51.400;5.494;2024-02-26T22:36:07;16.00;;;7.10;;
47896;SDS011;39629;51.400;5.494;2024-02-26T22:41:08;14.90;;;6.45;;
47896;SDS011;39629;51.400;5.494;2024-02-26T22:46:10;17.63;;;7.15;;
47896;SDS011;39629;51.400;5.494;2024-02-26T22:51:13;17.30;;;7.22;;
47896;SDS011;39629;51.400;5.494;2024-02-26T22:56:15;15.45;;;6.18;;
47896;SDS011;39629;51.400;5.494;2024-02-26T23:01:17;16.52;;;6.30;;
47896;SDS011;39629;51.400;5.494;2024-02-26T23:06:19;16.55;;;6.63;;
47896;SDS011;39629;51.400;5.494;2024-02-26T23:11:21;16.88;;;6.97;;
47896;SDS011;39629;51.400;5.494;2024-02-26T23:16:23;16.77;;;6.72;;
47896;SDS011;39629;51.400;5.494;2024-02-26T23:21:26;16.30;;;7.03;;
47896;SDS011;39629;51.400;5.494;2024-02-26T23:26:27;16.30;;;6.82;;
47896;SDS011;39629;51.400;5.494;2024-02-26T23:31:29;15.23;;;6.40;;
47896;SDS011;39629;51.400;5.494;2024-02-26T23:36:32;14.70;;;6.55;;
47896;SDS011;39629;51.400;5.494;2024-02-26T23:41:33;13.77;;;5.88;;
47896;SDS011;39629;51.400;5.494;2024-02-26T23:46:35;17.38;;;6.50;;
47896;SDS011;39629;51.400;5.494;2024-02-26T23:51:38;16.10;;;6.97;;
47896;SDS011;39629;51.400;5.494;2024-02-26T23:56:40;15.15;;;6.68;;
